Home   Weather   Japan   Yokosuka   Past weeks
Flag for Japan

Past Weather in Yokosuka, Japan — Yesterday and Last 2 Weeks

Currently: 63 °F. Partly sunny. (Weather station: Tokyo International Airport, Japan). See more current weather

Past Weather in Yokosuka — Graph

°F

Yokosuka Temperature Yesterday

Maximum temperature yesterday: 77 °F (at 2:30 pm)
Minimum temperature yesterday: 59 °F (at 5:00 am)
Average temperature yesterday: 66 °F

High & Low Weather Summary for the Past Weeks

 TemperatureHumidityPressure
High77 °F (Apr 15, 1:30 pm)100% (Apr 7, 11:00 pm)30.42 "Hg (Apr 7, 11:00 pm)
Low48 °F (Apr 10, 3:30 am)27% (Apr 19, 3:39 pm)29.56 "Hg (Apr 9, 10:07 am)
Average62 °F71%30.00 "Hg
* Reported Apr 6 5:00 am — Apr 21 5:00 am, Yokosuka. Weather by CustomWeather, © 2024

Note: Actual official high and low records may vary slightly from our data, if they occured in-between our weather recording intervals... More about our weather records

Yokosuka Weather History for the Previous 24 Hours

Scroll right to see more
 ConditionsComfort  
Time TempWeatherWind HumidityBarometerVisibility
5:00 am
Sun, Apr 21
63 °FBroken clouds.10 mph64%29.95 "HgN/A
4:30 am63 °FPartly cloudy.10 mph68%29.92 "HgN/A
4:00 am63 °FPartly cloudy.9 mph68%29.92 "HgN/A
3:30 am63 °FPassing clouds.10 mph68%29.92 "HgN/A
3:00 am63 °FPassing clouds.10 mph68%29.92 "HgN/A
2:30 am64 °FClear.13 mph60%29.92 "Hg10 mi
2:00 am64 °FPassing clouds.12 mph68%29.92 "HgN/A
1:30 am64 °FPassing clouds.13 mph68%29.92 "HgN/A
1:00 am64 °FPassing clouds.10 mph68%29.92 "HgN/A
12:30 am64 °FPassing clouds.8 mph78%29.92 "HgN/A
12:00 am64 °FPassing clouds.9 mph78%29.95 "HgN/A
11:30 pm
Sat, Apr 20
64 °FPassing clouds.13 mph78%29.92 "HgN/A
10:30 pm64 °FClear.9 mph78%29.92 "Hg10 mi
10:00 pm64 °FPassing clouds.12 mph83%29.92 "HgN/A
9:30 pm64 °FClear.9 mph83%29.92 "Hg10 mi
9:00 pm64 °FClear.6 mph83%29.92 "Hg10 mi
8:30 pm64 °FClear.5 mph83%29.92 "Hg10 mi
8:00 pm66 °FPassing clouds.7 mph68%29.89 "HgN/A
7:30 pm66 °FClear.7 mph64%29.89 "Hg10 mi
7:00 pm68 °FClear.9 mph53%29.89 "Hg10 mi
6:30 pm68 °FClear.12 mph49%29.86 "Hg10 mi
6:00 pm70 °FSunny.12 mph46%29.86 "Hg10 mi
5:30 pm72 °FSunny.15 mph44%29.86 "Hg10 mi
5:00 pm72 °FSunny.17 mph47%29.83 "Hg10 mi
4:30 pm72 °FSunny.15 mph41%29.83 "Hg10 mi
4:00 pm70 °FSunny.15 mph46%29.83 "Hg10 mi
3:30 pm72 °FSunny.16 mph47%29.83 "Hg10 mi
3:00 pm75 °FSunny.14 mph29%29.83 "Hg10 mi
2:30 pm77 °FSunny.12 mph28%29.83 "Hg10 mi
2:00 pm75 °FSunny.9 mph29%29.83 "Hg10 mi
1:30 pm70 °FPassing clouds.9 mph46%29.83 "HgN/A
1:00 pm70 °FSunny.8 mph50%29.86 "Hg10 mi
12:30 pm70 °FSunny.7 mph53%29.86 "Hg10 mi
12:00 pm70 °FSunny.9 mph57%29.86 "Hg10 mi
11:30 am68 °FSunny.8 mph60%29.89 "Hg10 mi
11:00 am68 °FSunny.8 mph56%29.89 "Hg10 mi
10:00 am70 °FSunny.10 mph40%29.89 "Hg10 mi
9:30 am68 °FSunny.6 mph46%29.92 "Hg10 mi
9:00 am68 °FSunny.6 mph40%29.92 "Hg10 mi
8:30 am68 °FPassing clouds.5 mph38%29.89 "HgN/A
8:00 am66 °FSunny.7 mph43%29.89 "Hg10 mi
7:30 am63 °FSunny.3 mph52%29.89 "Hg10 mi
7:00 am64 °FSunny.6 mph40%29.86 "Hg10 mi
Weather by CustomWeather, © 2024

See weather overview